Amelia, Louisiana
Current Conditions -  °F | °C
As of 1:55 AM on Friday 19 Dec 2014 (Local Time) from KPTN Reporting Station
Overcast Overcast  
Wind Chill: 57°   Ceiling: 400
Heat Index: 57°   Visibility: 3mi
Dew Point: 55°   Wind: 7mph
Humidity: 94%   Direction: 80°E
Pressure: 30.06"   Gusts: NA
Location:  29.67°N, 91.1°W
Report Text: KPTN 190755Z AUTO 08006KT 3SM OVC004 14/13 A3006 RMK AO1
Loading
Personal Weather Stations






























Interactive Weather Map New forecast layout! Learn more

10-Day Weather Forecast

Advertisements
Track Severe Weather on mobile